createdAt,value
2022-11-28T00:01:49.168Z,1019.78
2022-11-28T00:04:02.681Z,1019.76
2022-11-28T00:06:16.265Z,1019.73
2022-11-28T00:08:29.336Z,1019.71
2022-11-28T00:10:42.914Z,1019.62
2022-11-28T00:12:56.513Z,1019.60
2022-11-28T00:15:10.114Z,1019.54
2022-11-28T00:17:25.725Z,1019.56
2022-11-28T00:19:39.377Z,1019.55
2022-11-28T00:21:53.864Z,1019.54
2022-11-28T00:24:09.462Z,1019.50
2022-11-28T00:26:23.055Z,1019.53
2022-11-28T00:28:37.658Z,1019.50
2022-11-28T00:30:53.221Z,1019.49
2022-11-28T00:33:09.816Z,1019.48
2022-11-28T00:35:23.405Z,1019.44
2022-11-28T00:37:36.982Z,1019.37
2022-11-28T00:39:50.592Z,1019.39
2022-11-28T00:42:04.175Z,1019.39
2022-11-28T00:44:17.765Z,1019.40
2022-11-28T00:46:31.360Z,1019.36
2022-11-28T00:48:46.964Z,1019.38
2022-11-28T00:51:00.588Z,1019.38
2022-11-28T00:53:16.141Z,1019.33
2022-11-28T00:55:31.741Z,1019.33
2022-11-28T00:57:43.824Z,1019.28
2022-11-28T00:59:59.388Z,1019.23
2022-11-28T01:02:10.670Z,1019.22
2022-11-28T01:04:26.199Z,1019.15
2022-11-28T01:06:38.280Z,1019.16
2022-11-28T01:08:50.376Z,1019.15
2022-11-28T01:11:03.484Z,1019.15
2022-11-28T01:13:17.065Z,1019.14
2022-11-28T01:15:30.617Z,1019.10
2022-11-28T01:17:46.198Z,1019.06
2022-11-28T01:19:59.798Z,1019.07
2022-11-28T01:22:13.387Z,1019.03
2022-11-28T01:24:28.992Z,1019.02
2022-11-28T01:26:42.119Z,1018.99
2022-11-28T01:28:55.707Z,1019.00
2022-11-28T01:31:11.362Z,1018.98
2022-11-28T01:33:26.883Z,1018.95
2022-11-28T01:35:40.494Z,1018.93
2022-11-28T01:37:54.061Z,1018.88
2022-11-28T01:40:07.695Z,1018.92
2022-11-28T01:42:21.264Z,1018.88
2022-11-28T01:44:37.544Z,1018.83
2022-11-28T01:46:50.025Z,1018.83
2022-11-28T01:49:05.525Z,1018.81
2022-11-28T01:51:17.653Z,1018.78
2022-11-28T01:53:33.247Z,1018.74
2022-11-28T01:55:45.349Z,1018.72
2022-11-28T01:58:00.965Z,1018.69
2022-11-28T02:00:14.515Z,1018.63
2022-11-28T02:02:26.691Z,1018.62
2022-11-28T02:04:40.476Z,1018.66
2022-11-28T02:06:55.828Z,1018.58
2022-11-28T02:09:11.417Z,1018.55
2022-11-28T02:11:26.973Z,1018.52
2022-11-28T02:13:40.569Z,1018.44
2022-11-28T02:15:54.219Z,1018.42
2022-11-28T02:18:09.757Z,1018.38
2022-11-28T02:20:25.348Z,1018.35
2022-11-28T02:22:38.403Z,1018.35
2022-11-28T02:24:51.993Z,1018.35
2022-11-28T02:27:07.884Z,1018.37
2022-11-28T02:29:19.992Z,1018.37
2022-11-28T02:31:35.678Z,1018.39
2022-11-28T02:33:51.185Z,1018.33
2022-11-28T02:36:09.290Z,1018.29
2022-11-28T02:38:22.867Z,1018.30
2022-11-28T02:40:39.303Z,1018.30
2022-11-28T02:42:54.054Z,1018.29
2022-11-28T02:45:07.967Z,1018.28
2022-11-28T02:47:20.734Z,1018.29
2022-11-28T02:49:33.781Z,1018.26
2022-11-28T02:51:50.212Z,1018.24
2022-11-28T02:54:01.499Z,1018.20
2022-11-28T02:56:15.064Z,1018.22
2022-11-28T02:58:29.600Z,1018.18
2022-11-28T03:00:41.772Z,1018.22
2022-11-28T03:02:57.309Z,1018.20
2022-11-28T03:05:12.931Z,1018.19
2022-11-28T03:07:27.516Z,1018.13
2022-11-28T03:09:41.023Z,1018.09
2022-11-28T03:11:57.695Z,1018.09
2022-11-28T03:14:12.206Z,1018.04
2022-11-28T03:16:27.870Z,1018.00
2022-11-28T03:18:43.385Z,1018.02
2022-11-28T03:20:59.005Z,1017.96
2022-11-28T03:23:11.085Z,1017.90
2022-11-28T03:25:26.656Z,1017.96
2022-11-28T03:27:40.274Z,1017.94
2022-11-28T03:29:54.686Z,1017.93
2022-11-28T03:32:06.923Z,1017.93
2022-11-28T03:34:22.521Z,1017.89
2022-11-28T03:36:36.102Z,1017.88
2022-11-28T03:38:49.727Z,1017.87
2022-11-28T03:41:03.296Z,1017.90
2022-11-28T03:43:16.879Z,1017.89
2022-11-28T03:45:31.497Z,1017.84
2022-11-28T03:47:45.087Z,1017.85
2022-11-28T03:50:00.706Z,1017.80
2022-11-28T03:52:16.259Z,1017.75
2022-11-28T03:54:31.851Z,1017.74
2022-11-28T03:56:47.436Z,1017.73
2022-11-28T03:59:03.054Z,1017.75
2022-11-28T04:01:17.696Z,1017.66
2022-11-28T04:03:33.259Z,1017.65
2022-11-28T04:05:46.820Z,1017.61
2022-11-28T04:08:02.477Z,1017.57
2022-11-28T04:10:17.989Z,1017.54
2022-11-28T04:12:31.583Z,1017.53
2022-11-28T04:14:47.162Z,1017.58
2022-11-28T04:17:00.819Z,1017.54
2022-11-28T04:19:16.363Z,1017.62
2022-11-28T04:21:32.251Z,1017.55
2022-11-28T04:23:47.824Z,1017.54
2022-11-28T04:26:03.697Z,1017.51
2022-11-28T04:28:16.810Z,1017.48
2022-11-28T04:30:33.207Z,1017.41
2022-11-28T04:32:45.973Z,1017.41
2022-11-28T04:34:59.067Z,1017.40
2022-11-28T04:37:14.653Z,1017.40
2022-11-28T04:39:30.228Z,1017.39
2022-11-28T04:41:45.868Z,1017.41
2022-11-28T04:43:57.923Z,1017.39
2022-11-28T04:46:12.581Z,1017.37
2022-11-28T04:48:28.726Z,1017.35
2022-11-28T04:50:41.189Z,1017.38
2022-11-28T04:52:56.755Z,1017.36
2022-11-28T04:55:10.351Z,1017.41
2022-11-28T04:57:23.973Z,1017.40
2022-11-28T04:59:42.048Z,1017.37
2022-11-28T05:01:57.678Z,1017.37
2022-11-28T05:04:09.736Z,1017.31
2022-11-28T05:06:21.822Z,1017.21
2022-11-28T05:08:35.424Z,1017.27
2022-11-28T05:10:47.486Z,1017.35
2022-11-28T05:13:00.587Z,1017.34
2022-11-28T05:15:15.140Z,1017.33
2022-11-28T05:17:27.238Z,1017.33
2022-11-28T05:19:39.354Z,1017.42
2022-11-28T05:21:52.910Z,1017.34
2022-11-28T05:24:06.494Z,1017.38
2022-11-28T05:26:20.115Z,1017.35
2022-11-28T05:28:44.794Z,1017.32
2022-11-28T05:30:57.826Z,1017.32
2022-11-28T05:33:13.384Z,1017.26
2022-11-28T05:35:26.974Z,1017.27
2022-11-28T05:37:39.083Z,1017.22
2022-11-28T05:39:52.162Z,1017.16
2022-11-28T05:42:05.756Z,1017.14
2022-11-28T05:44:24.037Z,1017.10
2022-11-28T05:45:20.306Z,1017.05
2022-11-28T05:47:31.457Z,1017.08
2022-11-28T05:49:44.787Z,1017.08
2022-11-28T05:51:58.102Z,1016.99
2022-11-28T05:54:11.688Z,1016.96
2022-11-28T05:56:23.779Z,1016.96
2022-11-28T05:58:37.381Z,1016.92
2022-11-28T06:00:52.200Z,1016.89
2022-11-28T06:03:04.561Z,1016.86
2022-11-28T06:05:40.912Z,1016.82
2022-11-28T06:07:28.835Z,1016.77
2022-11-28T06:09:42.827Z,1016.80
2022-11-28T06:11:55.972Z,1016.69
2022-11-28T06:14:11.561Z,1016.72
2022-11-28T06:16:25.185Z,1016.71
2022-11-28T06:18:38.770Z,1016.76
2022-11-28T06:20:50.891Z,1016.75
2022-11-28T06:23:04.486Z,1016.73
2022-11-28T06:25:20.083Z,1016.76
2022-11-28T06:27:32.178Z,1016.79
2022-11-28T06:29:45.766Z,1016.76
2022-11-28T06:31:59.402Z,1016.78
2022-11-28T06:34:12.928Z,1016.78
2022-11-28T06:36:27.388Z,1016.76
2022-11-28T06:38:40.140Z,1016.81
2022-11-28T06:40:52.246Z,1016.81
2022-11-28T06:43:05.839Z,1016.82
2022-11-28T06:45:19.396Z,1016.80
2022-11-28T06:47:32.500Z,1016.79
2022-11-28T06:49:44.975Z,1016.79
2022-11-28T06:51:58.198Z,1016.82
2022-11-28T06:54:11.803Z,1016.85
2022-11-28T06:56:23.883Z,1016.78
2022-11-28T06:58:36.951Z,1016.76
2022-11-28T07:00:49.112Z,1016.73
2022-11-28T07:03:02.648Z,1016.73
2022-11-28T07:05:18.281Z,1016.70
2022-11-28T07:07:31.898Z,1016.65
2022-11-28T07:09:44.332Z,1016.69
2022-11-28T07:11:57.503Z,1016.70
2022-11-28T07:14:11.113Z,1016.66
2022-11-28T07:16:24.748Z,1016.66
2022-11-28T07:18:36.791Z,1016.69
2022-11-28T07:20:50.346Z,1016.73
2022-11-28T07:23:03.955Z,1016.72
2022-11-28T07:25:17.078Z,1016.64
2022-11-28T07:27:32.687Z,1016.70
2022-11-28T07:29:46.257Z,1016.67
2022-11-28T07:32:01.891Z,1016.70
2022-11-28T07:34:17.427Z,1016.63
2022-11-28T07:35:17.413Z,1016.66
2022-11-28T07:37:31.361Z,1016.65
2022-11-28T07:39:44.355Z,1016.62
2022-11-28T07:41:56.203Z,1016.54
2022-11-28T07:44:10.340Z,1016.58
2022-11-28T07:46:25.485Z,1016.55
2022-11-28T07:48:40.979Z,1016.50
2022-11-28T07:50:54.636Z,1016.60
2022-11-28T07:53:08.239Z,1016.57
2022-11-28T07:55:20.320Z,1016.54
2022-11-28T07:57:33.909Z,1016.59
2022-11-28T07:59:46.990Z,1016.56
2022-11-28T08:02:00.674Z,1016.53
2022-11-28T08:04:12.752Z,1016.52
2022-11-28T08:06:28.292Z,1016.50
2022-11-28T08:08:41.842Z,1016.39
2022-11-28T08:10:53.974Z,1016.41
2022-11-28T08:13:09.541Z,1016.31
2022-11-28T08:15:22.617Z,1016.28
2022-11-28T08:17:34.744Z,1016.32
2022-11-28T08:19:48.305Z,1016.30
2022-11-28T08:22:05.746Z,1016.19
2022-11-28T08:24:16.985Z,1016.20
2022-11-28T08:26:31.110Z,1016.08
2022-11-28T08:28:44.195Z,1016.24
2022-11-28T08:30:57.907Z,1016.24
2022-11-28T08:33:10.858Z,1016.26
2022-11-28T08:35:24.448Z,1016.22
2022-11-28T08:37:38.022Z,1016.25
2022-11-28T08:39:51.135Z,1016.27
2022-11-28T08:42:04.711Z,1016.40
2022-11-28T08:44:18.297Z,1016.38
2022-11-28T08:46:30.455Z,1016.49
2022-11-28T08:48:43.979Z,1016.59
2022-11-28T08:50:57.086Z,1016.62
2022-11-28T08:53:09.143Z,1016.62
2022-11-28T08:55:31.687Z,1016.62
2022-11-28T08:57:34.873Z,1016.69
2022-11-28T08:59:48.467Z,1016.69
2022-11-28T09:02:00.590Z,1016.73
2022-11-28T09:04:12.750Z,1016.66
2022-11-28T09:06:24.750Z,1016.68
2022-11-28T09:08:37.879Z,1016.61
2022-11-28T09:10:51.437Z,1016.55
2022-11-28T09:13:04.544Z,1016.57
2022-11-28T09:15:18.113Z,1016.51
2022-11-28T09:17:31.699Z,1016.52
2022-11-28T09:19:45.495Z,1016.49
2022-11-28T09:21:58.067Z,1016.48
2022-11-28T09:24:09.561Z,1016.52
2022-11-28T09:26:21.659Z,1016.47
2022-11-28T09:28:35.242Z,1016.53
2022-11-28T09:30:47.371Z,1016.57
2022-11-28T09:33:00.941Z,1016.59
2022-11-28T09:35:14.563Z,1016.62
2022-11-28T09:37:26.661Z,1016.63
2022-11-28T09:39:56.986Z,1016.62
2022-11-28T09:40:39.700Z,1016.65
2022-11-28T09:42:50.758Z,1016.60
2022-11-28T09:45:04.365Z,1016.64
2022-11-28T09:47:16.445Z,1016.57
2022-11-28T09:49:31.335Z,1016.49
2022-11-28T09:51:43.183Z,1016.48
2022-11-28T09:53:57.047Z,1016.49
2022-11-28T09:56:09.096Z,1016.46
2022-11-28T09:58:21.200Z,1016.43
2022-11-28T10:00:34.777Z,1016.43
2022-11-28T10:02:46.894Z,1016.36
2022-11-28T10:05:00.070Z,1016.42
2022-11-28T10:07:13.578Z,1016.32
2022-11-28T10:09:25.615Z,1016.34
2022-11-28T10:11:39.220Z,1016.31
2022-11-28T10:14:07.813Z,1016.31
2022-11-28T10:14:53.793Z,1016.31
2022-11-28T10:17:06.474Z,1016.33
2022-11-28T10:19:38.623Z,1016.34
2022-11-28T10:20:19.441Z,1016.35
2022-11-28T10:22:32.066Z,1016.31
2022-11-28T10:24:44.176Z,1016.29
2022-11-28T10:26:57.750Z,1016.21
2022-11-28T10:29:11.329Z,1016.23
2022-11-28T10:31:23.425Z,1016.24
2022-11-28T10:33:35.502Z,1016.23
2022-11-28T10:35:47.599Z,1016.21
2022-11-28T10:37:59.662Z,1016.14
2022-11-28T10:40:11.749Z,1016.05
2022-11-28T10:42:24.860Z,1016.08
2022-11-28T10:44:36.955Z,1016.03
2022-11-28T10:46:50.585Z,1016.03
2022-11-28T10:49:03.466Z,1015.94
2022-11-28T10:51:15.707Z,1015.99
2022-11-28T10:53:27.797Z,1015.98
2022-11-28T10:55:40.391Z,1015.94
2022-11-28T11:17:23.820Z,1015.89
2022-11-28T11:54:52.618Z,1015.54
2022-11-28T11:57:31.563Z,1015.53
2022-11-28T11:59:19.810Z,1015.47
2022-11-28T12:01:31.859Z,1015.47
2022-11-28T12:03:44.010Z,1015.40
2022-11-28T12:08:08.106Z,1015.38
2022-11-28T12:10:20.259Z,1015.38
2022-11-28T12:12:33.838Z,1015.41
2022-11-28T12:14:46.340Z,1015.40
2022-11-28T12:16:58.054Z,1015.42
2022-11-28T12:19:11.094Z,1015.41
2022-11-28T12:21:24.739Z,1015.39
2022-11-28T12:23:38.264Z,1015.40
2022-11-28T12:25:50.347Z,1015.44
2022-11-28T12:28:02.456Z,1015.40
2022-11-28T12:30:18.019Z,1015.36
2022-11-28T12:32:31.091Z,1015.40
2022-11-28T12:34:44.695Z,1015.38
2022-11-28T12:36:59.277Z,1015.39
2022-11-28T12:39:11.403Z,1015.37
2022-11-28T12:41:30.740Z,1015.36
2022-11-28T12:43:37.060Z,1015.35
2022-11-28T12:45:50.650Z,1015.37
2022-11-28T12:48:02.719Z,1015.31
2022-11-28T12:50:16.331Z,1015.30
2022-11-28T12:52:28.389Z,1015.29
2022-11-28T12:54:41.999Z,1015.26
2022-11-28T12:56:55.562Z,1015.22
2022-11-28T12:59:09.163Z,1015.22
2022-11-28T13:01:22.793Z,1015.21
2022-11-28T13:03:35.837Z,1015.21
2022-11-28T13:05:47.920Z,1015.13
2022-11-28T13:08:00.053Z,1015.13
2022-11-28T13:10:14.593Z,1015.11
2022-11-28T13:12:28.524Z,1015.11
2022-11-28T13:14:41.299Z,1015.03
2022-11-28T13:16:53.354Z,1015.04
2022-11-28T13:19:05.483Z,1014.96
2022-11-28T13:21:17.562Z,1015.00
2022-11-28T13:23:29.662Z,1015.03
2022-11-28T13:25:41.729Z,1015.00
2022-11-28T13:27:53.816Z,1015.02
2022-11-28T13:30:06.902Z,1015.06
2022-11-28T13:32:20.478Z,1015.05
2022-11-28T13:34:34.180Z,1015.06
2022-11-28T13:39:58.255Z,1015.01
2022-11-28T13:43:12.301Z,1014.95
2022-11-28T13:45:30.226Z,1014.91
2022-11-28T13:47:38.529Z,1014.90
2022-11-28T13:49:51.570Z,1014.86
2022-11-28T13:52:03.681Z,1014.81
2022-11-28T13:54:15.762Z,1014.80
2022-11-28T13:56:27.871Z,1014.82
2022-11-28T13:58:41.427Z,1014.82
2022-11-28T14:00:53.520Z,1014.79
2022-11-28T14:03:07.526Z,1014.72
2022-11-28T14:05:24.656Z,1014.80
2022-11-28T14:07:30.848Z,1014.76
2022-11-28T14:09:42.864Z,1014.79
2022-11-28T14:11:54.943Z,1014.80
2022-11-28T14:14:08.011Z,1014.88
2022-11-28T14:16:20.137Z,1014.85
2022-11-28T14:18:55.669Z,1014.92
2022-11-28T14:19:33.183Z,1014.98
2022-11-28T14:21:44.261Z,1015.01
2022-11-28T14:23:56.365Z,1015.05
2022-11-28T14:26:08.468Z,1015.11
2022-11-28T14:28:20.561Z,1015.13
2022-11-28T14:30:32.630Z,1015.15
2022-11-28T14:32:45.712Z,1015.13
2022-11-28T14:34:58.831Z,1015.15
2022-11-28T14:37:11.857Z,1015.12
2022-11-28T14:39:24.966Z,1015.15
2022-11-28T14:41:37.924Z,1015.11
2022-11-28T14:43:50.187Z,1015.14
2022-11-28T14:46:03.800Z,1015.19
2022-11-28T14:48:14.965Z,1015.16
2022-11-28T14:50:28.917Z,1015.12
2022-11-28T14:52:40.913Z,1015.20
2022-11-28T14:54:53.154Z,1015.18
2022-11-28T14:57:06.259Z,1015.16
2022-11-28T14:59:19.804Z,1015.15
2022-11-28T15:01:31.898Z,1015.16
2022-11-28T15:03:45.467Z,1015.10
2022-11-28T15:05:57.564Z,1015.11
2022-11-28T15:08:11.157Z,1015.06
2022-11-28T15:10:24.709Z,1015.09
2022-11-28T15:12:36.803Z,1015.12
2022-11-28T15:14:50.389Z,1015.21
2022-11-28T15:17:02.464Z,1015.21
2022-11-28T15:19:14.969Z,1015.23
2022-11-28T15:21:27.624Z,1015.28
2022-11-28T15:23:39.695Z,1015.28
2022-11-28T15:25:52.079Z,1015.33
2022-11-28T15:28:04.189Z,1015.35
2022-11-28T15:30:17.795Z,1015.37
2022-11-28T15:32:30.110Z,1015.29
2022-11-28T15:34:42.468Z,1015.24
2022-11-28T15:36:54.307Z,1015.23
2022-11-28T15:39:07.403Z,1015.23
2022-11-28T15:41:20.495Z,1015.19
2022-11-28T15:43:34.079Z,1015.16
2022-11-28T15:45:46.162Z,1015.28
2022-11-28T15:47:59.126Z,1015.33
2022-11-28T15:50:10.356Z,1015.32
2022-11-28T15:52:23.442Z,1015.32
2022-11-28T15:54:37.032Z,1015.37
2022-11-28T15:56:49.114Z,1015.38
2022-11-28T15:59:01.525Z,1015.42
2022-11-28T16:01:13.360Z,1015.44
2022-11-28T16:03:25.386Z,1015.45
2022-11-28T16:05:37.444Z,1015.50
2022-11-28T16:07:49.584Z,1015.49
2022-11-28T16:10:01.592Z,1015.53
2022-11-28T16:12:14.698Z,1015.55
2022-11-28T16:14:26.796Z,1015.51
2022-11-28T16:16:38.946Z,1015.52
2022-11-28T16:18:50.964Z,1015.52
2022-11-28T16:21:04.048Z,1015.45
2022-11-28T16:23:17.103Z,1015.46
2022-11-28T16:25:29.224Z,1015.45
2022-11-28T16:27:41.285Z,1015.45
2022-11-28T16:29:53.364Z,1015.47
2022-11-28T16:32:05.443Z,1015.43
2022-11-28T16:34:17.553Z,1015.42
2022-11-28T16:36:31.175Z,1015.42
2022-11-28T16:38:43.206Z,1015.35
2022-11-28T16:40:55.341Z,1015.36
2022-11-28T16:43:07.419Z,1015.39
2022-11-28T16:45:19.517Z,1015.47
2022-11-28T16:47:33.141Z,1015.40
2022-11-28T16:49:45.449Z,1015.42
2022-11-28T16:51:58.778Z,1015.44
2022-11-28T16:54:10.870Z,1015.48
2022-11-28T16:56:22.953Z,1015.45
2022-11-28T16:58:35.415Z,1015.39
2022-11-28T17:00:47.528Z,1015.43
2022-11-28T17:03:00.921Z,1015.44
2022-11-28T17:05:12.990Z,1015.45
2022-11-28T17:07:27.590Z,1015.53
2022-11-28T17:09:39.685Z,1015.54
2022-11-28T17:11:51.747Z,1015.54
2022-11-28T17:14:06.198Z,1015.58
2022-11-28T17:16:18.542Z,1015.52
2022-11-28T17:18:30.811Z,1015.54
2022-11-28T17:20:44.390Z,1015.51
2022-11-28T17:22:56.467Z,1015.54
2022-11-28T17:25:08.543Z,1015.54
2022-11-28T17:27:20.661Z,1015.52
2022-11-28T17:29:32.736Z,1015.54
2022-11-28T17:31:46.395Z,1015.55
2022-11-28T17:33:58.414Z,1015.59
2022-11-28T17:36:10.499Z,1015.65
2022-11-28T17:38:22.588Z,1015.66
2022-11-28T17:40:35.525Z,1015.68
2022-11-28T17:42:46.792Z,1015.68
2022-11-28T17:44:59.890Z,1015.66
2022-11-28T17:47:11.928Z,1015.59
2022-11-28T17:49:24.012Z,1015.62
2022-11-28T17:51:36.201Z,1015.59
2022-11-28T17:53:48.212Z,1015.58
2022-11-28T17:56:00.293Z,1015.59
2022-11-28T17:58:12.410Z,1015.54
2022-11-28T18:00:25.451Z,1015.51
2022-11-28T18:02:37.570Z,1015.45
2022-11-28T18:04:49.935Z,1015.40
2022-11-28T18:07:01.983Z,1015.33
2022-11-28T18:09:14.074Z,1015.26
2022-11-28T18:11:26.163Z,1015.22
2022-11-28T18:13:38.242Z,1015.31
2022-11-28T18:15:50.353Z,1015.35
2022-11-28T18:18:03.909Z,1015.40
2022-11-28T18:20:17.514Z,1015.40
2022-11-28T18:22:31.094Z,1015.45
2022-11-28T18:24:44.689Z,1015.42
2022-11-28T18:27:00.282Z,1015.48
2022-11-28T18:29:12.338Z,1015.39
2022-11-28T18:31:24.649Z,1015.40
2022-11-28T18:33:38.022Z,1015.31
2022-11-28T18:35:51.621Z,1015.30
2022-11-28T18:38:03.714Z,1015.31
2022-11-28T18:40:15.791Z,1015.34
2022-11-28T18:42:27.877Z,1015.39
2022-11-28T18:44:41.444Z,1015.35
2022-11-28T18:46:53.532Z,1015.39
2022-11-28T18:49:09.434Z,1015.41
2022-11-28T18:52:08.204Z,1015.35
2022-11-28T18:55:57.868Z,1015.38
2022-11-28T18:57:23.223Z,1015.34
2022-11-28T18:59:37.747Z,1015.40
2022-11-28T19:13:05.167Z,1015.39
2022-11-28T19:15:20.275Z,1015.44
2022-11-28T19:18:45.464Z,1015.44
2022-11-28T19:21:01.121Z,1015.49
2022-11-28T19:23:17.101Z,1015.50
2022-11-28T19:25:56.679Z,1015.48
2022-11-28T19:28:16.778Z,1015.46
2022-11-28T19:30:04.856Z,1015.47
2022-11-28T19:32:33.589Z,1015.55
2022-11-28T19:34:40.617Z,1015.61
2022-11-28T19:43:16.993Z,1015.56
2022-11-28T19:45:18.175Z,1015.50
2022-11-28T19:47:31.185Z,1015.53
2022-11-28T19:50:22.407Z,1015.45
2022-11-28T19:52:29.894Z,1015.50
2022-11-28T19:54:17.545Z,1015.55
2022-11-28T19:56:34.605Z,1015.54
2022-11-28T19:58:51.597Z,1015.60
2022-11-28T20:01:15.069Z,1015.61
2022-11-28T20:03:32.171Z,1015.61
2022-11-28T20:10:31.236Z,1015.62
2022-11-28T20:12:46.377Z,1015.63
2022-11-28T20:14:59.959Z,1015.60
2022-11-28T20:17:18.086Z,1015.61
2022-11-28T20:19:32.576Z,1015.68
2022-11-28T21:09:56.512Z,1015.61
2022-11-28T21:11:56.239Z,1015.62
2022-11-28T21:12:36.003Z,1015.64
2022-11-28T21:14:50.618Z,1015.69
2022-11-28T21:17:06.211Z,1015.69
2022-11-28T21:19:21.822Z,1015.68
2022-11-28T21:21:34.886Z,1015.65
2022-11-28T21:23:46.962Z,1015.66
2022-11-28T21:26:00.042Z,1015.65
2022-11-28T21:28:12.117Z,1015.68
2022-11-28T21:30:25.703Z,1015.72
2022-11-28T21:32:38.837Z,1015.69
2022-11-28T21:34:50.876Z,1015.73
2022-11-28T21:37:02.956Z,1015.69
2022-11-28T21:39:16.051Z,1015.65
2022-11-28T21:41:28.121Z,1015.66
2022-11-28T21:43:43.744Z,1015.65
2022-11-28T21:45:57.375Z,1015.66
2022-11-28T21:48:10.912Z,1015.59
2022-11-28T21:50:24.483Z,1015.66
2022-11-28T21:52:36.563Z,1015.65
2022-11-28T21:54:48.687Z,1015.62
2022-11-28T21:57:02.236Z,1015.63
2022-11-28T21:59:14.320Z,1015.62
2022-11-28T22:01:27.965Z,1015.60
2022-11-28T22:03:41.531Z,1015.63
2022-11-28T22:05:55.135Z,1015.65
2022-11-28T22:08:10.759Z,1015.60
2022-11-28T22:10:26.344Z,1015.62
2022-11-28T22:12:40.003Z,1015.64
2022-11-28T22:14:53.582Z,1015.64
2022-11-28T22:17:07.188Z,1015.61
2022-11-28T22:19:19.265Z,1015.61
2022-11-28T22:22:32.330Z,1015.67
2022-11-28T22:24:44.391Z,1015.68
2022-11-28T22:26:58.014Z,1015.67
2022-11-28T22:29:10.073Z,1015.68
2022-11-28T22:31:23.727Z,1015.71
2022-11-28T22:33:35.826Z,1015.69
2022-11-28T22:35:48.732Z,1015.71
2022-11-28T22:37:59.987Z,1015.68
2022-11-28T22:40:12.082Z,1015.70
2022-11-28T22:42:25.648Z,1015.65
2022-11-28T22:44:40.116Z,1015.67
2022-11-28T22:46:52.318Z,1015.69
2022-11-28T22:49:04.413Z,1015.70
2022-11-28T22:51:17.569Z,1015.66
2022-11-28T22:53:32.081Z,1015.69
2022-11-28T22:55:44.183Z,1015.71
2022-11-28T22:57:57.217Z,1015.71
2022-11-28T23:00:12.826Z,1015.71
2022-11-28T23:02:25.092Z,1015.70
2022-11-28T23:04:38.499Z,1015.71
2022-11-28T23:06:50.627Z,1015.68
2022-11-28T23:09:04.180Z,1015.67
2022-11-28T23:11:17.786Z,1015.68
2022-11-28T23:13:29.863Z,1015.68
2022-11-28T23:15:51.205Z,1015.68
2022-11-28T23:17:59.352Z,1015.68
2022-11-28T23:20:12.922Z,1015.72
2022-11-28T23:22:26.579Z,1015.67
2022-11-28T23:24:38.636Z,1015.69
2022-11-28T23:26:51.651Z,1015.70
2022-11-28T23:29:05.288Z,1015.67
2022-11-28T23:31:18.974Z,1015.67
2022-11-28T23:33:31.974Z,1015.69
2022-11-28T23:35:44.071Z,1015.73
2022-11-28T23:37:57.661Z,1015.72
2022-11-28T23:40:11.262Z,1015.70
2022-11-28T23:42:24.835Z,1015.72
2022-11-28T23:44:36.924Z,1015.75
2022-11-28T23:46:49.983Z,1015.72
2022-11-28T23:49:05.401Z,1015.75
2022-11-28T23:51:15.700Z,1015.74
2022-11-28T23:53:29.260Z,1015.77
2022-11-28T23:55:42.848Z,1015.72
2022-11-28T23:57:54.952Z,1015.71
